Terminal Aerodrome Forecast
Issued by NWS

Home | Current Version | Previous Version | Text Only | Print | Product List | Glossary On
Versions: 1 2 3 4 5 6 7 8 9 10 11 12 13 14 15 16 17
000
FTUS45 KRIW 260500
TAFRKS
TAF
KRKS 260535Z 2606/2706 10011KT 6SM -RA SCT020 BKN030
     FM260900 14011KT P6SM VCSH SCT010 BKN015
     FM261400 VRB08KT P6SM VCSH SCT008 BKN025
     FM261900 04015G25KT P6SM VCSH SCT025 OVC035
     FM270100 05018G30KT 4SM -SN OVC020=

USA.gov is the U.S. government's official web portal to all federal, state and local government web resources and services.